Detall de PIREP

Printer-friendly versionPDF version

[2013/01/11 06:57:00]
Flight IATA:CT3245
Pilot Number:042
Company ICAO:CAT
Aircraft Type:B744/E
PAX:185
Departing Airport: ESSA
Destination Airport: LEPA
Alternate Airport:LEBL
Online: VATSIM
Route:DKR N872 DEMIR UN872 EEL UP174 WOODY UN872 KOVIN UY317 RESMI UN857 DIRMO UN855 PPG UP84 LORES
Flight Level:F360
No Slew and time accel
No pause
Crash detect
Detect pilot in Cockpit between each 30 and 45 minutes
06:57 Zero fuel Weight: 466689 Lbs, Fuel Weight: 164790 Lbs
06:57 VATSIM:ESSA 110620Z 04014G25KT 9999 -SN BKN014 M03/M05 Q1013 R01L/710164 R01R///99// R08/710161 TEMPO 4000 BKN018
06:57 VATSIM:LEPA 110630Z 34015KT 310V010 9999 FEW018 13/03 Q1019 NOSIG
06:57 VOICE CATALONIAN
07:01 Parking Brakes off
07:04 Take-off
07:04 Take off Weight: 629614 Lbs
07:04 Wind: 317º @ 006 Knots Heading: 008º
07:04 POS N59º 39´ 04´´ E017º 55´ 05´´
07:04 Gear Up: 192 Knots
07:04 Flaps:4 at 192 Knots
07:04 Flaps:3 at 196 Knots
07:04 Flaps:2 at 200 Knots
07:05 Flaps:1 at 193 Knots
07:06 Flaps:0 at 240 Knots
07:19 Wind:046º@000 Knots Heading: 218º Ground Speed: 467 Knots Altitude 33615 ft
07:21 TOC
07:21 Fuel Weight: 149106 Lb
07:34 Wind:329º@015 Knots Heading: 218º Ground Speed: 467 Knots Altitude 35948 ft
07:49 Wind:336º@029 Knots Heading: 233º Ground Speed: 470 Knots Altitude 35984 ft
08:04 Wind:322º@032 Knots Heading: 232º Ground Speed: 465 Knots Altitude 36036 ft
08:19 Wind:325º@040 Knots Heading: 224º Ground Speed: 472 Knots Altitude 36066 ft
08:34 Wind:323º@056 Knots Heading: 224º Ground Speed: 473 Knots Altitude 36118 ft
08:49 Wind:320º@063 Knots Heading: 209º Ground Speed: 493 Knots Altitude 36072 ft
09:04 Wind:327º@073 Knots Heading: 182º Ground Speed: 525 Knots Altitude 35990 ft
09:19 Wind:318º@069 Knots Heading: 184º Ground Speed:519 Knots Altitude 36128 ft
09:34 Wind:305º@066 Knots Heading: 186º Ground Speed: 504 Knots Altitude 36213 ft
09:48 TOD
09:48 Fuel Weight: 95514 Lb
09:49 Wind:301º@066 Knots Heading: 188º Ground Speed: 493 Knots Altitude 35866 ft
10:02 Flaps:1 at 223 Knots
10:02 Flaps:2 at 208 Knots
10:04 Wind:322º@023 Knots Heading: 191º Ground Speed: 223 Knots Altitude 6614 ft
10:04 Flaps:3 at 189 Knots
10:08 Gear Down: 179 Knots
10:08 Flaps:4 at 179 Knots
10:09 Flaps:5 at 167 Knots
10:09 Flaps:6 at 159 Knots
10:12 TouchDown:Rate -262 ft/min Speed: 142 Knots
10:12 VATSIM:LEPA 111000Z 33007KT 300V010 9999 FEW024 15/07 Q1021 NOSIG
10:12 Land
10:12 Wind:232º@007 Knots
10:12 Heading: 238º
10:12 Flight Duration: 03:08
10:12 Landing Weight: 556967 Lbs
10:12 POS N39º 32´ 56´´ E002º 44´ 54´´
10:18 Parking brakes on
10:18 Block to Block Duration: 03:17
10:18 Final Fuel: 89460 Lbls
10:18 Spent Fuel: 75330 Lbls
10:18 Flight Length: 1430 NM
10:18 TOD Land Length: 124 NM

Exportar CSV

Powered by Drupal - Modified by Danger4k